NV32 weather

Nev Fish & Game Reg III Headquarters Heliport
Las Vegas, Nevada, United States

Public forecast

Using degrees Fahrenheit for public forecast. Weather courtesy of forecast.io.

Closest aviation weather report (METAR) to Nev Fish & Game Reg III Headquarters Heliport

Closest report is North Las Vegas Airport, 1.5 nm (2.7 km) NNE. Retrieved 2020/02/17 17:53 UTC (10 minutes ago):

KVGT 171753Z 36011KT 10SM OVC120 19/M04 A3002 RMK AO2 SLP175 T01941044 10194 20100 51010

Closest aviation forecast (TAF) to Nev Fish & Game Reg III Headquarters Heliport

Closest forecast is North Las Vegas Airport, 1.5 nm (2.7 km) NNE. Retrieved 2020/02/17 18:34 UTC (0 seconds ago):

TAF KVGT 171732Z 1718/1818 34012KT P6SM FEW150 SCT250 FM180100 33007KT P6SM FEW150 SCT250 FM180900 34011KT P6SM BKN250